createdAt,value
2022-08-26T00:02:20.574Z,100445.00
2022-08-26T00:06:22.079Z,100424.41
2022-08-26T00:10:23.919Z,100458.56
2022-08-26T00:14:31.179Z,100436.31
2022-08-26T00:18:38.708Z,100421.84
2022-08-26T00:22:41.000Z,100438.13
2022-08-26T00:26:45.645Z,100399.84
2022-08-26T00:30:51.708Z,100438.38
2022-08-26T00:35:04.479Z,100436.81
2022-08-26T00:39:06.741Z,100428.38
2022-08-26T00:43:09.410Z,100411.41
2022-08-26T00:47:22.956Z,100402.81
2022-08-26T00:51:30.356Z,100422.06
2022-08-26T00:55:38.435Z,100434.69
2022-08-26T00:59:39.051Z,100430.16
2022-08-26T01:03:42.028Z,100426.94
2022-08-26T01:07:42.452Z,100438.03
2022-08-26T01:11:43.309Z,100413.63
2022-08-26T01:16:02.776Z,100430.31
2022-08-26T01:20:46.908Z,100407.19
2022-08-26T01:24:53.755Z,100427.72
2022-08-26T01:28:58.671Z,100405.28
2022-08-26T01:32:59.814Z,100446.63
2022-08-26T01:37:05.527Z,100428.91
2022-08-26T01:41:11.722Z,100452.34
2022-08-26T01:45:24.842Z,100456.28
2022-08-26T01:49:26.664Z,100454.44
2022-08-26T01:53:27.611Z,100457.19
2022-08-26T01:57:31.739Z,100453.13
2022-08-26T02:01:32.375Z,100433.22
2022-08-26T02:05:32.660Z,100452.91
2022-08-26T02:09:41.357Z,100453.59
2022-08-26T02:13:53.705Z,100449.31
2022-08-26T02:17:58.392Z,100454.91
2022-08-26T02:22:01.695Z,100434.13
2022-08-26T02:26:09.192Z,100449.16
2022-08-26T02:30:17.201Z,100459.31
2022-08-26T02:34:22.326Z,100449.81
2022-08-26T02:38:23.156Z,100430.00
2022-08-26T02:42:23.383Z,100415.34
2022-08-26T02:46:30.011Z,100457.34
2022-08-26T02:50:31.992Z,100418.00
2022-08-26T02:54:32.884Z,100457.97
2022-08-26T02:58:33.978Z,100445.81
2022-08-26T03:02:50.798Z,100459.81
2022-08-26T03:07:25.279Z,100449.53
2022-08-26T03:11:45.170Z,100463.34
2022-08-26T03:15:47.664Z,100461.19
2022-08-26T03:19:57.265Z,100449.56
2022-08-26T03:24:01.299Z,100471.41
2022-08-26T03:28:05.596Z,100472.59
2022-08-26T03:32:14.104Z,100465.31
2022-08-26T03:36:17.639Z,100436.78
2022-08-26T03:40:20.348Z,100475.47
2022-08-26T03:44:22.442Z,100477.44
2022-08-26T03:48:25.748Z,100449.28
2022-08-26T03:52:29.964Z,100481.16
2022-08-26T03:56:34.148Z,100458.56
2022-08-26T04:00:36.844Z,100476.25
2022-08-26T04:04:41.382Z,100462.56
2022-08-26T04:08:45.576Z,100463.44
2022-08-26T04:12:49.433Z,100484.03
2022-08-26T04:16:50.377Z,100464.47
2022-08-26T04:21:00.422Z,100487.50
2022-08-26T04:25:06.773Z,100472.97
2022-08-26T04:29:40.032Z,100476.91
2022-08-26T04:34:01.332Z,100493.66
2022-08-26T04:38:04.437Z,100494.75
2022-08-26T04:42:30.565Z,100480.88
2022-08-26T04:46:35.450Z,100490.13
2022-08-26T04:51:14.884Z,100498.59
2022-08-26T04:55:17.456Z,100490.81
2022-08-26T04:59:27.283Z,100495.22
2022-08-26T05:07:54.908Z,100474.88
2022-08-26T05:17:14.962Z,100492.22
2022-08-26T05:21:31.419Z,100487.78
2022-08-26T05:25:37.832Z,100495.53
2022-08-26T05:29:57.817Z,100475.97
2022-08-26T05:34:18.945Z,100464.34
2022-08-26T05:44:09.690Z,100469.50
2022-08-26T05:48:30.645Z,100490.72
2022-08-26T05:53:30.036Z,100472.88
2022-08-26T05:57:42.223Z,100491.34
2022-08-26T06:01:47.140Z,100489.66
2022-08-26T06:06:14.944Z,100498.34
2022-08-26T06:10:39.722Z,100480.28
2022-08-26T06:15:01.763Z,100500.75
2022-08-26T06:19:32.975Z,100488.13
2022-08-26T06:23:56.634Z,100501.88
2022-08-26T06:28:19.359Z,100505.09
2022-08-26T06:32:39.391Z,100493.66
2022-08-26T06:36:52.240Z,100467.72
2022-08-26T06:41:09.099Z,100482.81
2022-08-26T06:45:26.020Z,100490.63
2022-08-26T06:49:35.584Z,100498.91
2022-08-26T06:54:07.619Z,100455.31
2022-08-26T06:59:17.875Z,100511.34
2022-08-26T07:09:04.808Z,100497.22
2022-08-26T07:19:11.775Z,100502.75
2022-08-26T10:41:13.773Z,100400.91
2022-08-26T10:46:12.293Z,100397.56
2022-08-26T10:50:50.840Z,100379.97
2022-08-26T10:54:59.498Z,100392.88
2022-08-26T10:59:43.672Z,100387.69
2022-08-26T11:04:03.409Z,100383.72
2022-08-26T11:08:34.205Z,100373.44
2022-08-26T11:13:26.401Z,100373.72
2022-08-26T11:18:01.783Z,100370.56
2022-08-26T11:22:13.814Z,100353.09
2022-08-26T11:26:37.752Z,100338.84
2022-08-26T11:36:00.462Z,100361.22
2022-08-26T11:40:30.557Z,100357.00
2022-08-26T11:44:49.112Z,100348.78
2022-08-26T11:49:00.559Z,100329.34
2022-08-26T11:53:19.185Z,100338.53
2022-08-26T11:57:23.517Z,100308.31
2022-08-26T12:01:31.307Z,100333.41
2022-08-26T12:05:38.211Z,100329.53
2022-08-26T12:09:52.851Z,100327.94
2022-08-26T12:14:01.817Z,100318.06
2022-08-26T12:18:28.592Z,100313.84
2022-08-26T12:22:35.794Z,100296.44
2022-08-26T12:26:50.867Z,100307.66
2022-08-26T12:31:26.228Z,100308.91
2022-08-26T12:36:01.988Z,100299.59
2022-08-26T12:40:46.851Z,100288.47
2022-08-26T12:45:01.445Z,100289.19
2022-08-26T12:49:47.345Z,100286.13
2022-08-26T12:54:56.679Z,100289.75
2022-08-26T12:59:13.414Z,100252.38
2022-08-26T13:04:02.248Z,100287.03
2022-08-26T13:08:35.250Z,100279.63
2022-08-26T13:12:41.320Z,100287.41
2022-08-26T13:16:46.317Z,100282.47
2022-08-26T13:20:49.213Z,100273.06
2022-08-26T13:24:53.305Z,100285.13
2022-08-26T13:29:01.860Z,100270.22
2022-08-26T13:33:12.233Z,100272.75
2022-08-26T13:37:15.560Z,100264.91
2022-08-26T13:41:17.510Z,100272.78
2022-08-26T13:50:08.444Z,100266.22
2022-08-26T13:54:53.120Z,100256.28
2022-08-26T14:04:13.523Z,100259.34
2022-08-26T14:08:14.761Z,100256.78
2022-08-26T14:12:15.150Z,100259.00
2022-08-26T14:16:59.622Z,100263.22
2022-08-26T14:21:21.002Z,100247.56
2022-08-26T14:25:26.207Z,100257.66
2022-08-26T14:34:00.814Z,100263.50
2022-08-26T14:38:22.527Z,100223.84
2022-08-26T14:42:41.581Z,100260.78
2022-08-26T14:46:58.951Z,100254.72
2022-08-26T14:51:19.743Z,100256.41
2022-08-26T14:55:24.567Z,100261.81
2022-08-26T14:59:32.471Z,100262.31
2022-08-26T15:03:32.702Z,100266.22
2022-08-26T15:07:40.835Z,100262.34
2022-08-26T15:11:51.001Z,100259.03
2022-08-26T15:15:55.428Z,100270.66
2022-08-26T15:20:00.014Z,100234.19
2022-08-26T15:24:06.230Z,100270.63
2022-08-26T15:28:20.384Z,100236.03
2022-08-26T15:32:24.009Z,100267.91
2022-08-26T15:36:28.925Z,100258.91
2022-08-26T15:40:44.760Z,100272.81
2022-08-26T15:45:01.658Z,100262.44
2022-08-26T15:49:23.789Z,100253.88
2022-08-26T15:53:45.401Z,100260.25
2022-08-26T16:02:09.259Z,100245.69
2022-08-26T16:06:12.215Z,100249.31
2022-08-26T16:10:13.913Z,100233.16
2022-08-26T16:14:18.100Z,100258.06
2022-08-26T16:18:44.598Z,100255.81
2022-08-26T16:23:20.933Z,100256.22
2022-08-26T16:27:34.670Z,100239.94
2022-08-26T16:31:48.605Z,100269.63
2022-08-26T16:36:04.363Z,100270.72
2022-08-26T16:40:08.584Z,100263.19
2022-08-26T16:44:21.352Z,100282.81
2022-08-26T16:48:23.245Z,100258.47
2022-08-26T16:52:54.252Z,100279.31
2022-08-26T16:57:07.637Z,100290.81
2022-08-26T17:01:09.915Z,100291.19
2022-08-26T17:05:40.354Z,100293.25
2022-08-26T17:10:14.918Z,100286.69
2022-08-26T17:14:15.866Z,100291.75
2022-08-26T17:18:22.861Z,100294.41
2022-08-26T17:22:54.495Z,100293.06
2022-08-26T17:27:12.535Z,100297.50
2022-08-26T17:31:37.726Z,100297.31
2022-08-26T17:35:52.615Z,100302.94
2022-08-26T17:40:11.171Z,100300.91
2022-08-26T17:44:15.648Z,100309.50
2022-08-26T17:48:21.369Z,100290.69
2022-08-26T17:52:29.123Z,100314.75
2022-08-26T17:56:56.212Z,100310.09
2022-08-26T18:01:09.722Z,100296.41
2022-08-26T18:05:14.638Z,100322.28
2022-08-26T18:09:38.272Z,100313.56
2022-08-26T18:13:47.066Z,100322.25
2022-08-26T18:17:52.734Z,100327.91
2022-08-26T18:21:55.029Z,100337.63
2022-08-26T18:25:58.063Z,100334.56
2022-08-26T18:30:17.255Z,100334.75
2022-08-26T18:34:21.055Z,100315.78
2022-08-26T18:38:36.128Z,100319.63
2022-08-26T18:42:54.019Z,100318.78
2022-08-26T18:47:42.798Z,100330.44
2022-08-26T18:52:12.884Z,100336.75
2022-08-26T19:01:17.170Z,100347.50
2022-08-26T19:10:30.371Z,100349.78
2022-08-26T19:14:50.820Z,100342.94
2022-08-26T19:19:21.264Z,100356.56
2022-08-26T19:33:07.641Z,100363.41
2022-08-26T19:37:36.850Z,100380.19
2022-08-26T19:41:59.593Z,100361.03
2022-08-26T19:46:40.025Z,100382.38
2022-08-26T19:55:26.329Z,100371.41
2022-08-26T19:59:53.416Z,100386.13
2022-08-26T20:03:59.544Z,100373.41
2022-08-26T20:08:06.509Z,100376.09
2022-08-26T20:12:10.361Z,100395.91
2022-08-26T20:16:18.230Z,100374.56
2022-08-26T20:25:28.053Z,100373.69
2022-08-26T20:29:34.823Z,100398.22
2022-08-26T20:33:48.852Z,100378.88
2022-08-26T20:37:58.323Z,100372.81
2022-08-26T20:42:03.603Z,100377.28
2022-08-26T20:46:17.223Z,100383.63
2022-08-26T20:50:21.394Z,100375.97
2022-08-26T20:54:40.425Z,100382.44
2022-08-26T20:58:44.146Z,100416.16
2022-08-26T21:02:56.033Z,100419.41
2022-08-26T21:07:00.531Z,100417.44
2022-08-26T21:11:07.222Z,100421.31
2022-08-26T21:15:10.950Z,100414.47
2022-08-26T21:19:25.662Z,100391.59
2022-08-26T21:23:29.299Z,100422.06
2022-08-26T21:27:38.557Z,100381.06
2022-08-26T21:31:45.786Z,100417.00
2022-08-26T21:36:01.977Z,100425.97
2022-08-26T21:40:19.730Z,100402.59
2022-08-26T21:49:20.344Z,100417.38
2022-08-26T21:53:32.939Z,100399.13
2022-08-26T21:57:38.214Z,100401.81
2022-08-26T22:01:52.161Z,100411.03
2022-08-26T22:06:06.990Z,100413.91
2022-08-26T22:10:07.874Z,100411.44
2022-08-26T22:14:37.575Z,100417.31
2022-08-26T22:18:43.180Z,100424.84
2022-08-26T22:22:45.112Z,100425.97
2022-08-26T22:26:44.959Z,100418.84
2022-08-26T22:30:48.454Z,100424.84
2022-08-26T22:34:51.960Z,100420.53
2022-08-26T22:38:57.377Z,100423.31
2022-08-26T22:43:00.285Z,100411.41
2022-08-26T22:47:15.618Z,100408.47
2022-08-26T22:51:19.959Z,100400.63
2022-08-26T22:55:22.933Z,100412.31
2022-08-26T22:59:23.969Z,100385.44
2022-08-26T23:03:25.691Z,100408.28
2022-08-26T23:07:28.858Z,100400.28
2022-08-26T23:11:36.306Z,100411.00
2022-08-26T23:15:38.415Z,100385.69
2022-08-26T23:19:41.106Z,100396.78
2022-08-26T23:23:57.114Z,100411.63
2022-08-26T23:28:00.350Z,100400.25
2022-08-26T23:32:01.252Z,100411.81
2022-08-26T23:36:30.839Z,100365.69
2022-08-26T23:40:41.771Z,100406.88
2022-08-26T23:44:43.089Z,100412.13
2022-08-26T23:48:48.064Z,100408.34
2022-08-26T23:53:12.403Z,100391.50
2022-08-26T23:57:22.739Z,100402.44
